sensor_id;sensor_type;location;lat;lon;timestamp;pressure;altitude;pressure_sealevel;temperature;humidity
31082;BME280;17737;52.586;13.284;2023-04-27T00:02:18;101346.72;;;6.38;66.36
31082;BME280;17737;52.586;13.284;2023-04-27T00:04:46;101348.41;;;6.39;66.11
31082;BME280;17737;52.586;13.284;2023-04-27T00:07:16;101345.53;;;6.31;66.38
31082;BME280;17737;52.586;13.284;2023-04-27T00:09:44;101334.09;;;6.29;66.49
31082;BME280;17737;52.586;13.284;2023-04-27T00:12:11;101333.75;;;6.33;66.42
31082;BME280;17737;52.586;13.284;2023-04-27T00:14:39;101337.03;;;6.26;66.11
31082;BME280;17737;52.586;13.284;2023-04-27T00:17:07;101336.06;;;6.27;66.90
31082;BME280;17737;52.586;13.284;2023-04-27T00:19:35;101333.75;;;6.22;66.70
31082;BME280;17737;52.586;13.284;2023-04-27T00:22:05;101334.41;;;6.15;67.43
31082;BME280;17737;52.586;13.284;2023-04-27T00:24:34;101331.59;;;6.16;66.98
31082;BME280;17737;52.586;13.284;2023-04-27T00:27:02;101339.75;;;6.15;67.26
31082;BME280;17737;52.586;13.284;2023-04-27T00:29:30;101331.75;;;6.15;67.64
31082;BME280;17737;52.586;13.284;2023-04-27T00:31:58;101340.59;;;6.15;67.43
31082;BME280;17737;52.586;13.284;2023-04-27T00:34:26;101340.72;;;6.14;67.37
31082;BME280;17737;52.586;13.284;2023-04-27T00:36:54;101333.56;;;6.14;67.45
31082;BME280;17737;52.586;13.284;2023-04-27T00:39:22;101349.00;;;6.11;67.98
31082;BME280;17737;52.586;13.284;2023-04-27T00:41:51;101339.16;;;6.11;67.88
31082;BME280;17737;52.586;13.284;2023-04-27T00:44:22;101350.94;;;6.08;67.87
31082;BME280;17737;52.586;13.284;2023-04-27T00:46:51;101344.03;;;6.06;68.00
31082;BME280;17737;52.586;13.284;2023-04-27T00:49:20;101345.25;;;6.02;68.31
31082;BME280;17737;52.586;13.284;2023-04-27T00:51:48;101352.06;;;6.06;68.66
31082;BME280;17737;52.586;13.284;2023-04-27T00:54:19;101354.13;;;6.02;68.00
31082;BME280;17737;52.586;13.284;2023-04-27T00:56:47;101351.69;;;5.99;68.18
31082;BME280;17737;52.586;13.284;2023-04-27T00:59:18;101356.44;;;6.07;68.35
31082;BME280;17737;52.586;13.284;2023-04-27T01:01:47;101359.50;;;6.02;67.98
31082;BME280;17737;52.586;13.284;2023-04-27T01:04:16;101356.81;;;6.02;68.43
31082;BME280;17737;52.586;13.284;2023-04-27T01:06:44;101360.81;;;5.97;68.35
31082;BME280;17737;52.586;13.284;2023-04-27T01:09:12;101352.31;;;5.92;68.61
31082;BME280;17737;52.586;13.284;2023-04-27T01:11:41;101359.84;;;5.98;69.10
31082;BME280;17737;52.586;13.284;2023-04-27T01:14:09;101360.19;;;6.04;68.52
31082;BME280;17737;52.586;13.284;2023-04-27T01:16:39;101363.00;;;6.03;68.71
31082;BME280;17737;52.586;13.284;2023-04-27T01:19:07;101359.59;;;6.01;68.68
31082;BME280;17737;52.586;13.284;2023-04-27T01:21:35;101358.13;;;6.08;68.66
31082;BME280;17737;52.586;13.284;2023-04-27T01:24:06;101364.22;;;5.99;69.60
31082;BME280;17737;52.586;13.284;2023-04-27T01:26:35;101364.84;;;6.02;69.52
31082;BME280;17737;52.586;13.284;2023-04-27T01:29:03;101360.19;;;6.04;69.04
31082;BME280;17737;52.586;13.284;2023-04-27T01:31:31;101365.78;;;6.01;69.40
31082;BME280;17737;52.586;13.284;2023-04-27T01:33:59;101371.41;;;5.98;69.02
31082;BME280;17737;52.586;13.284;2023-04-27T01:36:27;101372.84;;;6.02;68.88
31082;BME280;17737;52.586;13.284;2023-04-27T01:38:55;101377.13;;;5.94;69.39
31082;BME280;17737;52.586;13.284;2023-04-27T01:41:24;101384.50;;;6.01;69.03
31082;BME280;17737;52.586;13.284;2023-04-27T01:43:52;101379.81;;;5.94;69.01
31082;BME280;17737;52.586;13.284;2023-04-27T01:46:20;101376.53;;;5.90;68.93
31082;BME280;17737;52.586;13.284;2023-04-27T01:48:48;101377.00;;;5.95;69.45
31082;BME280;17737;52.586;13.284;2023-04-27T01:51:16;101382.34;;;5.84;69.00
31082;BME280;17737;52.586;13.284;2023-04-27T01:53:45;101381.38;;;5.85;68.63
31082;BME280;17737;52.586;13.284;2023-04-27T01:56:13;101384.50;;;5.79;69.01
31082;BME280;17737;52.586;13.284;2023-04-27T01:58:42;101389.38;;;5.96;68.87
31082;BME280;17737;52.586;13.284;2023-04-27T02:01:10;101395.59;;;5.97;68.49
31082;BME280;17737;52.586;13.284;2023-04-27T02:03:38;101389.16;;;5.88;69.34
31082;BME280;17737;52.586;13.284;2023-04-27T02:06:07;101385.25;;;5.81;69.33
31082;BME280;17737;52.586;13.284;2023-04-27T02:08:35;101393.53;;;5.89;69.07
31082;BME280;17737;52.586;13.284;2023-04-27T02:11:03;101393.25;;;5.81;69.23
31082;BME280;17737;52.586;13.284;2023-04-27T02:13:31;101392.91;;;5.75;69.62
31082;BME280;17737;52.586;13.284;2023-04-27T02:16:01;101404.34;;;5.77;69.24
31082;BME280;17737;52.586;13.284;2023-04-27T02:18:31;101393.84;;;5.74;69.44
31082;BME280;17737;52.586;13.284;2023-04-27T02:20:59;101403.72;;;5.73;68.87
31082;BME280;17737;52.586;13.284;2023-04-27T02:23:27;101408.69;;;5.78;68.54
31082;BME280;17737;52.586;13.284;2023-04-27T02:25:55;101399.31;;;5.72;69.19
31082;BME280;17737;52.586;13.284;2023-04-27T02:28:23;101403.13;;;5.70;69.10
31082;BME280;17737;52.586;13.284;2023-04-27T02:30:51;101403.25;;;5.68;68.88
31082;BME280;17737;52.586;13.284;2023-04-27T02:33:20;101405.19;;;5.66;69.36
31082;BME280;17737;52.586;13.284;2023-04-27T02:35:48;101403.13;;;5.70;69.82
31082;BME280;17737;52.586;13.284;2023-04-27T02:38:16;101405.41;;;5.63;70.06
31082;BME280;17737;52.586;13.284;2023-04-27T02:40:44;101409.28;;;5.70;69.24
31082;BME280;17737;52.586;13.284;2023-04-27T02:43:12;101411.25;;;5.68;69.76
31082;BME280;17737;52.586;13.284;2023-04-27T02:45:40;101408.31;;;5.60;68.82
31082;BME280;17737;52.586;13.284;2023-04-27T02:48:08;101408.81;;;5.54;69.53
31082;BME280;17737;52.586;13.284;2023-04-27T02:50:40;101412.22;;;5.56;69.28
31082;BME280;17737;52.586;13.284;2023-04-27T02:53:09;101411.84;;;5.61;70.15
31082;BME280;17737;52.586;13.284;2023-04-27T02:55:37;101419.00;;;5.60;69.89
31082;BME280;17737;52.586;13.284;2023-04-27T02:58:11;101410.78;;;5.63;69.67
31082;BME280;17737;52.586;13.284;2023-04-27T03:00:39;101416.47;;;5.70;69.39
31082;BME280;17737;52.586;13.284;2023-04-27T03:03:08;101420.72;;;5.61;69.86
31082;BME280;17737;52.586;13.284;2023-04-27T03:05:36;101423.28;;;5.63;69.18
31082;BME280;17737;52.586;13.284;2023-04-27T03:08:05;101427.16;;;5.59;70.02
31082;BME280;17737;52.586;13.284;2023-04-27T03:10:33;101413.19;;;5.66;68.93
31082;BME280;17737;52.586;13.284;2023-04-27T03:13:01;101420.84;;;5.60;69.89
31082;BME280;17737;52.586;13.284;2023-04-27T03:15:29;101420.00;;;5.59;69.48
31082;BME280;17737;52.586;13.284;2023-04-27T03:17:57;101421.19;;;5.55;69.67
31082;BME280;17737;52.586;13.284;2023-04-27T03:20:25;101419.97;;;5.48;70.09
31082;BME280;17737;52.586;13.284;2023-04-27T03:22:53;101423.13;;;5.53;70.11
31082;BME280;17737;52.586;13.284;2023-04-27T03:25:23;101420.22;;;5.45;70.14
31082;BME280;17737;52.586;13.284;2023-04-27T03:27:51;101423.38;;;5.50;70.09
31082;BME280;17737;52.586;13.284;2023-04-27T03:30:19;101419.25;;;5.46;69.87
31082;BME280;17737;52.586;13.284;2023-04-27T03:32:47;101429.69;;;5.49;70.23
31082;BME280;17737;52.586;13.284;2023-04-27T03:35:15;101432.38;;;5.49;70.32
31082;BME280;17737;52.586;13.284;2023-04-27T03:37:43;101433.69;;;5.44;70.33
31082;BME280;17737;52.586;13.284;2023-04-27T03:40:12;101442.09;;;5.50;70.36
31082;BME280;17737;52.586;13.284;2023-04-27T03:42:42;101439.66;;;5.47;70.57
31082;BME280;17737;52.586;13.284;2023-04-27T03:45:10;101446.31;;;5.42;70.99
31082;BME280;17737;52.586;13.284;2023-04-27T03:47:38;101443.94;;;5.50;70.39
31082;BME280;17737;52.586;13.284;2023-04-27T03:50:07;101450.59;;;5.44;70.54
31082;BME280;17737;52.586;13.284;2023-04-27T03:52:35;101447.19;;;5.42;70.41
31082;BME280;17737;52.586;13.284;2023-04-27T03:55:04;101445.31;;;5.32;70.47
31082;BME280;17737;52.586;13.284;2023-04-27T03:57:33;101450.44;;;5.35;70.96
31082;BME280;17737;52.586;13.284;2023-04-27T04:00:03;101457.50;;;5.36;70.86
31082;BME280;17737;52.586;13.284;2023-04-27T04:02:36;101450.34;;;5.47;70.14
31082;BME280;17737;52.586;13.284;2023-04-27T04:05:05;101455.69;;;5.47;70.65
31082;BME280;17737;52.586;13.284;2023-04-27T04:07:34;101452.78;;;5.50;70.76
31082;BME280;17737;52.586;13.284;2023-04-27T04:10:02;101462.25;;;5.54;70.06
31082;BME280;17737;52.586;13.284;2023-04-27T04:12:31;101455.09;;;5.55;70.14
31082;BME280;17737;52.586;13.284;2023-04-27T04:14:59;101458.59;;;5.55;70.01
31082;BME280;17737;52.586;13.284;2023-04-27T04:17:28;101466.50;;;5.57;70.20
31082;BME280;17737;52.586;13.284;2023-04-27T04:19:56;101471.28;;;5.64;70.03
31082;BME280;17737;52.586;13.284;2023-04-27T04:22:24;101469.31;;;5.55;70.14
31082;BME280;17737;52.586;13.284;2023-04-27T04:24:52;101472.34;;;5.51;69.92
31082;BME280;17737;52.586;13.284;2023-04-27T04:27:20;101477.44;;;5.54;70.83
31082;BME280;17737;52.586;13.284;2023-04-27T04:29:48;101469.66;;;5.51;70.35
31082;BME280;17737;52.586;13.284;2023-04-27T04:32:16;101479.28;;;5.64;70.16
31082;BME280;17737;52.586;13.284;2023-04-27T04:34:48;101480.47;;;5.60;70.37
31082;BME280;17737;52.586;13.284;2023-04-27T04:37:17;101482.47;;;5.69;69.86
31082;BME280;17737;52.586;13.284;2023-04-27T04:39:45;101482.47;;;5.69;69.73
31082;BME280;17737;52.586;13.284;2023-04-27T04:42:13;101479.53;;;5.61;70.01
31082;BME280;17737;52.586;13.284;2023-04-27T04:44:41;101486.59;;;5.73;69.69
31082;BME280;17737;52.586;13.284;2023-04-27T04:47:10;101478.81;;;5.70;69.38
31082;BME280;17737;52.586;13.284;2023-04-27T04:49:38;101485.88;;;5.71;69.25
31082;BME280;17737;52.586;13.284;2023-04-27T04:52:07;101492.56;;;5.77;69.27
31082;BME280;17737;52.586;13.284;2023-04-27T04:54:35;101495.38;;;5.75;69.34
31082;BME280;17737;52.586;13.284;2023-04-27T04:57:04;101493.34;;;5.90;69.51
31082;BME280;17737;52.586;13.284;2023-04-27T04:59:33;101496.31;;;5.74;69.46
31082;BME280;17737;52.586;13.284;2023-04-27T05:02:01;101493.06;;;5.82;68.75
31082;BME280;17737;52.586;13.284;2023-04-27T05:04:29;101496.81;;;5.79;69.05
31082;BME280;17737;52.586;13.284;2023-04-27T05:06:57;101498.91;;;5.98;68.54
31082;BME280;17737;52.586;13.284;2023-04-27T05:09:27;101500.78;;;5.97;68.70
31082;BME280;17737;52.586;13.284;2023-04-27T05:11:55;101496.38;;;5.96;68.04
31082;BME280;17737;52.586;13.284;2023-04-27T05:14:23;101502.22;;;6.01;67.79
31082;BME280;17737;52.586;13.284;2023-04-27T05:16:51;101504.75;;;6.03;67.06
31082;BME280;17737;52.586;13.284;2023-04-27T05:19:19;101503.31;;;5.99;66.74
31082;BME280;17737;52.586;13.284;2023-04-27T05:21:47;101505.63;;;6.03;67.26
31082;BME280;17737;52.586;13.284;2023-04-27T05:24:15;101508.91;;;6.07;67.78
31082;BME280;17737;52.586;13.284;2023-04-27T05:26:44;101502.94;;;6.03;67.78
31082;BME280;17737;52.586;13.284;2023-04-27T05:29:12;101509.53;;;6.11;67.38
31082;BME280;17737;52.586;13.284;2023-04-27T05:31:41;101497.97;;;6.21;67.57
31082;BME280;17737;52.586;13.284;2023-04-27T05:34:09;101506.97;;;6.31;66.83
31082;BME280;17737;52.586;13.284;2023-04-27T05:36:37;101512.06;;;6.34;65.47
31082;BME280;17737;52.586;13.284;2023-04-27T05:39:05;101510.97;;;6.37;65.47
31082;BME280;17737;52.586;13.284;2023-04-27T05:41:33;101513.97;;;6.54;66.05
31082;BME280;17737;52.586;13.284;2023-04-27T05:44:02;101509.97;;;6.49;65.36
31082;BME280;17737;52.586;13.284;2023-04-27T05:46:30;101507.06;;;6.41;65.63
31082;BME280;17737;52.586;13.284;2023-04-27T05:48:59;101509.97;;;6.27;66.29
31082;BME280;17737;52.586;13.284;2023-04-27T05:51:27;101513.28;;;6.19;66.13
31082;BME280;17737;52.586;13.284;2023-04-27T05:53:55;101518.41;;;6.33;66.40
31082;BME280;17737;52.586;13.284;2023-04-27T05:56:25;101518.25;;;6.57;65.64
31082;BME280;17737;52.586;13.284;2023-04-27T05:58:53;101527.38;;;6.65;65.22
31082;BME280;17737;52.586;13.284;2023-04-27T06:01:22;101522.84;;;6.66;64.81
31082;BME280;17737;52.586;13.284;2023-04-27T06:03:50;101515.28;;;6.82;63.97
31082;BME280;17737;52.586;13.284;2023-04-27T06:06:18;101532.22;;;6.71;64.51
31082;BME280;17737;52.586;13.284;2023-04-27T06:08:46;101524.69;;;6.54;64.21
31082;BME280;17737;52.586;13.284;2023-04-27T06:11:14;101526.78;;;6.40;65.29
31082;BME280;17737;52.586;13.284;2023-04-27T06:13:42;101525.31;;;6.47;64.65
31082;BME280;17737;52.586;13.284;2023-04-27T06:16:10;101526.88;;;6.60;64.57
31082;BME280;17737;52.586;13.284;2023-04-27T06:18:40;101535.25;;;6.78;64.41
31082;BME280;17737;52.586;13.284;2023-04-27T06:21:08;101536.31;;;6.86;63.34
31082;BME280;17737;52.586;13.284;2023-04-27T06:23:35;101540.84;;;6.86;63.51
31082;BME280;17737;52.586;13.284;2023-04-27T06:26:03;101537.03;;;6.88;62.98
31082;BME280;17737;52.586;13.284;2023-04-27T06:28:31;101540.31;;;7.03;62.42
31082;BME280;17737;52.586;13.284;2023-04-27T06:30:59;101539.09;;;6.96;62.78
31082;BME280;17737;52.586;13.284;2023-04-27T06:33:27;101533.34;;;7.11;62.63
31082;BME280;17737;52.586;13.284;2023-04-27T06:35:56;101535.19;;;7.00;62.94
31082;BME280;17737;52.586;13.284;2023-04-27T06:38:24;101534.47;;;7.29;63.02
31082;BME280;17737;52.586;13.284;2023-04-27T06:40:52;101534.50;;;7.18;61.16
31082;BME280;17737;52.586;13.284;2023-04-27T06:43:20;101537.44;;;7.15;61.55
31082;BME280;17737;52.586;13.284;2023-04-27T06:45:48;101537.44;;;7.15;62.00
31082;BME280;17737;52.586;13.284;2023-04-27T06:48:16;101536.41;;;7.39;60.99
31082;BME280;17737;52.586;13.284;2023-04-27T06:50:44;101539.28;;;7.47;61.57
31082;BME280;17737;52.586;13.284;2023-04-27T06:53:14;101535.59;;;7.48;60.24
31082;BME280;17737;52.586;13.284;2023-04-27T06:55:43;101536.34;;;7.18;60.33
31082;BME280;17737;52.586;13.284;2023-04-27T06:58:13;101530.06;;;7.08;60.62
31082;BME280;17737;52.586;13.284;2023-04-27T07:00:41;101540.13;;;7.47;60.07
31082;BME280;17737;52.586;13.284;2023-04-27T07:03:09;101541.66;;;7.81;58.35
31082;BME280;17737;52.586;13.284;2023-04-27T07:05:38;101542.66;;;8.10;57.39
31082;BME280;17737;52.586;13.284;2023-04-27T07:08:06;101540.88;;;8.41;56.66
31082;BME280;17737;52.586;13.284;2023-04-27T07:10:36;101540.56;;;8.84;55.55
31082;BME280;17737;52.586;13.284;2023-04-27T07:13:04;101546.00;;;8.54;55.11
31082;BME280;17737;52.586;13.284;2023-04-27T07:15:34;101539.13;;;8.30;55.71
31082;BME280;17737;52.586;13.284;2023-04-27T07:18:03;101549.75;;;8.11;55.74
31082;BME280;17737;52.586;13.284;2023-04-27T07:20:31;101543.66;;;8.09;56.12
31082;BME280;17737;52.586;13.284;2023-04-27T07:22:59;101538.63;;;7.95;56.01
31082;BME280;17737;52.586;13.284;2023-04-27T07:25:27;101549.31;;;8.36;55.69
31082;BME280;17737;52.586;13.284;2023-04-27T07:27:56;101546.34;;;8.70;54.94
31082;BME280;17737;52.586;13.284;2023-04-27T07:30:25;101541.47;;;9.03;53.95
31082;BME280;17737;52.586;13.284;2023-04-27T07:32:56;101543.25;;;8.84;54.45
31082;BME280;17737;52.586;13.284;2023-04-27T07:35:24;101550.72;;;8.71;54.09
31082;BME280;17737;52.586;13.284;2023-04-27T07:37:52;101545.19;;;8.63;53.75
31082;BME280;17737;52.586;13.284;2023-04-27T07:40:20;101544.94;;;8.75;53.90
31082;BME280;17737;52.586;13.284;2023-04-27T07:42:49;101547.31;;;8.29;54.70
31082;BME280;17737;52.586;13.284;2023-04-27T07:45:18;101556.31;;;8.48;54.78
31082;BME280;17737;52.586;13.284;2023-04-27T07:47:47;101556.22;;;8.60;54.72
31082;BME280;17737;52.586;13.284;2023-04-27T07:50:16;101551.94;;;8.57;54.86
31082;BME280;17737;52.586;13.284;2023-04-27T07:52:47;101557.69;;;8.43;55.34
31082;BME280;17737;52.586;13.284;2023-04-27T07:55:15;101556.66;;;8.65;54.41
31082;BME280;17737;52.586;13.284;2023-04-27T07:57:43;101558.56;;;8.53;54.14
31082;BME280;17737;52.586;13.284;2023-04-27T08:00:12;101560.38;;;8.83;54.30
31082;BME280;17737;52.586;13.284;2023-04-27T08:02:42;101567.50;;;9.03;52.52
31082;BME280;17737;52.586;13.284;2023-04-27T08:05:11;101566.47;;;8.85;52.84
31082;BME280;17737;52.586;13.284;2023-04-27T08:07:40;101562.78;;;8.86;52.58
31082;BME280;17737;52.586;13.284;2023-04-27T08:10:10;101565.13;;;9.19;51.76
31082;BME280;17737;52.586;13.284;2023-04-27T08:12:38;101564.22;;;8.99;51.83
31082;BME280;17737;52.586;13.284;2023-04-27T08:15:07;101563.69;;;8.56;51.29
31082;BME280;17737;52.586;13.284;2023-04-27T08:17:36;101562.88;;;8.35;51.43
31082;BME280;17737;52.586;13.284;2023-04-27T08:20:09;101564.97;;;8.62;51.96
31082;BME280;17737;52.586;13.284;2023-04-27T08:22:38;101558.81;;;8.40;51.98
31082;BME280;17737;52.586;13.284;2023-04-27T08:25:07;101573.31;;;8.08;53.54
31082;BME280;17737;52.586;13.284;2023-04-27T08:27:36;101567.34;;;8.25;53.04
31082;BME280;17737;52.586;13.284;2023-04-27T08:30:06;101560.28;;;8.03;52.58
31082;BME280;17737;52.586;13.284;2023-04-27T08:32:35;101571.94;;;8.13;52.40
31082;BME280;17737;52.586;13.284;2023-04-27T08:35:03;101572.00;;;8.53;52.17
31082;BME280;17737;52.586;13.284;2023-04-27T08:37:33;101568.50;;;8.62;51.38
31082;BME280;17737;52.586;13.284;2023-04-27T08:40:03;101560.44;;;8.53;51.67
31082;BME280;17737;52.586;13.284;2023-04-27T08:42:33;101571.50;;;8.29;52.16
31082;BME280;17737;52.586;13.284;2023-04-27T08:45:01;101572.38;;;8.18;52.28
31082;BME280;17737;52.586;13.284;2023-04-27T08:47:30;101570.44;;;8.20;53.08
31082;BME280;17737;52.586;13.284;2023-04-27T08:50:10;101570.66;;;8.17;53.38
31082;BME280;17737;52.586;13.284;2023-04-27T08:52:43;101573.19;;;8.30;51.48
31082;BME280;17737;52.586;13.284;2023-04-27T08:55:12;101570.16;;;8.44;50.88
31082;BME280;17737;52.586;13.284;2023-04-27T08:57:52;101576.72;;;8.61;50.63
31082;BME280;17737;52.586;13.284;2023-04-27T09:00:22;101565.44;;;8.36;50.31
31082;BME280;17737;52.586;13.284;2023-04-27T09:02:51;101569.44;;;8.52;50.98
31082;BME280;17737;52.586;13.284;2023-04-27T09:05:21;101576.91;;;8.38;51.37
31082;BME280;17737;52.586;13.284;2023-04-27T09:07:58;101575.88;;;8.30;51.50
31082;BME280;17737;52.586;13.284;2023-04-27T09:10:42;101575.97;;;8.49;51.62
31082;BME280;17737;52.586;13.284;2023-04-27T09:13:12;101571.69;;;8.77;52.06
31082;BME280;17737;52.586;13.284;2023-04-27T09:15:41;101579.47;;;8.49;51.55
31082;BME280;17737;52.586;13.284;2023-04-27T09:18:14;101577.59;;;8.71;51.64
31082;BME280;17737;52.586;13.284;2023-04-27T09:20:45;101574.88;;;8.61;51.51
31082;BME280;17737;52.586;13.284;2023-04-27T09:23:27;101578.03;;;8.76;51.28
31082;BME280;17737;52.586;13.284;2023-04-27T09:25:56;101576.47;;;9.51;48.70
31082;BME280;17737;52.586;13.284;2023-04-27T09:28:26;101567.81;;;9.28;47.38
31082;BME280;17737;52.586;13.284;2023-04-27T09:30:57;101557.22;;;9.46;47.03
31082;BME280;17737;52.586;13.284;2023-04-27T09:33:27;101564.81;;;9.03;47.69
31082;BME280;17737;52.586;13.284;2023-04-27T09:35:58;101564.53;;;9.06;49.53
31082;BME280;17737;52.586;13.284;2023-04-27T09:38:29;101556.47;;;8.57;52.10
31082;BME280;17737;52.586;13.284;2023-04-27T09:40:58;101557.03;;;8.60;52.95
31082;BME280;17737;52.586;13.284;2023-04-27T09:43:27;101545.41;;;8.50;52.67
31082;BME280;17737;52.586;13.284;2023-04-27T09:45:57;101550.06;;;8.78;52.15
31082;BME280;17737;52.586;13.284;2023-04-27T09:48:25;101553.72;;;8.77;50.78
31082;BME280;17737;52.586;13.284;2023-04-27T09:50:53;101546.28;;;9.00;49.96
31082;BME280;17737;52.586;13.284;2023-04-27T09:53:25;101544.19;;;9.51;47.64
31082;BME280;17737;52.586;13.284;2023-04-27T09:56:10;101543.00;;;9.92;46.62
31082;BME280;17737;52.586;13.284;2023-04-27T09:59:01;101541.28;;;10.00;45.43
31082;BME280;17737;52.586;13.284;2023-04-27T10:01:46;101532.34;;;10.19;44.39
31082;BME280;17737;52.586;13.284;2023-04-27T10:04:28;101526.13;;;11.00;42.77
31082;BME280;17737;52.586;13.284;2023-04-27T10:07:13;101531.63;;;10.26;43.07
31082;BME280;17737;52.586;13.284;2023-04-27T10:09:44;101530.22;;;10.49;43.39
31082;BME280;17737;52.586;13.284;2023-04-27T10:12:16;101531.94;;;10.04;44.70
31082;BME280;17737;52.586;13.284;2023-04-27T10:14:52;101529.41;;;9.93;45.73
31082;BME280;17737;52.586;13.284;2023-04-27T10:17:28;101529.66;;;10.00;45.82
31082;BME280;17737;52.586;13.284;2023-04-27T10:19:58;101530.00;;;9.78;45.30
31082;BME280;17737;52.586;13.284;2023-04-27T10:22:36;101531.13;;;9.85;43.23
31082;BME280;17737;52.586;13.284;2023-04-27T10:25:16;101527.84;;;10.73;41.32
31082;BME280;17737;52.586;13.284;2023-04-27T10:27:48;101534.53;;;10.69;41.62
31082;BME280;17737;52.586;13.284;2023-04-27T10:30:19;101524.38;;;11.08;42.07
31082;BME280;17737;52.586;13.284;2023-04-27T10:32:50;101527.59;;;10.94;41.64
31082;BME280;17737;52.586;13.284;2023-04-27T10:35:20;101529.59;;;10.38;41.84
31082;BME280;17737;52.586;13.284;2023-04-27T10:37:49;101524.66;;;10.60;41.18
31082;BME280;17737;52.586;13.284;2023-04-27T10:40:19;101525.38;;;10.26;42.99
31082;BME280;17737;52.586;13.284;2023-04-27T10:42:48;101530.78;;;10.07;43.56
31082;BME280;17737;52.586;13.284;2023-04-27T10:45:25;101539.13;;;10.59;43.61
31082;BME280;17737;52.586;13.284;2023-04-27T10:47:59;101533.69;;;10.69;42.24
31082;BME280;17737;52.586;13.284;2023-04-27T10:50:28;101535.31;;;10.79;41.95
31082;BME280;17737;52.586;13.284;2023-04-27T10:52:59;101535.19;;;10.81;40.60
31082;BME280;17737;52.586;13.284;2023-04-27T10:55:30;101534.97;;;10.65;41.77
31082;BME280;17737;52.586;13.284;2023-04-27T10:57:59;101537.81;;;10.36;41.60
31082;BME280;17737;52.586;13.284;2023-04-27T11:00:29;101536.31;;;10.05;40.79
31082;BME280;17737;52.586;13.284;2023-04-27T11:03:10;101538.75;;;10.08;39.49
31082;BME280;17737;52.586;13.284;2023-04-27T11:05:40;101536.59;;;10.21;39.84
31082;BME280;17737;52.586;13.284;2023-04-27T11:08:11;101542.72;;;10.04;40.28
31082;BME280;17737;52.586;13.284;2023-04-27T11:10:45;101541.44;;;10.08;41.68
31082;BME280;17737;52.586;13.284;2023-04-27T11:13:16;101544.84;;;10.10;42.53
31082;BME280;17737;52.586;13.284;2023-04-27T11:15:47;101536.38;;;9.67;43.47
31082;BME280;17737;52.586;13.284;2023-04-27T11:18:18;101541.41;;;10.54;42.30
31082;BME280;17737;52.586;13.284;2023-04-27T11:20:48;101541.88;;;10.77;39.96
31082;BME280;17737;52.586;13.284;2023-04-27T11:23:29;101545.19;;;11.33;39.06
31082;BME280;17737;52.586;13.284;2023-04-27T11:26:09;101536.28;;;11.68;38.31
31082;BME280;17737;52.586;13.284;2023-04-27T11:28:40;101534.34;;;12.03;37.86
31082;BME280;17737;52.586;13.284;2023-04-27T11:31:08;101544.56;;;11.57;38.78
31082;BME280;17737;52.586;13.284;2023-04-27T11:33:37;101543.41;;;10.79;40.19
31082;BME280;17737;52.586;13.284;2023-04-27T11:36:15;101542.69;;;11.22;40.29
31082;BME280;17737;52.586;13.284;2023-04-27T11:38:44;101542.34;;;11.35;40.29
31082;BME280;17737;52.586;13.284;2023-04-27T11:41:14;101542.69;;;11.22;40.27
31082;BME280;17737;52.586;13.284;2023-04-27T11:43:43;101549.69;;;10.98;40.26
31082;BME280;17737;52.586;13.284;2023-04-27T11:46:14;101558.88;;;11.05;40.59
31082;BME280;17737;52.586;13.284;2023-04-27T11:48:46;101562.94;;;10.91;40.65
31082;BME280;17737;52.586;13.284;2023-04-27T11:51:16;101571.34;;;11.06;41.04
31082;BME280;17737;52.586;13.284;2023-04-27T11:53:46;101561.81;;;11.11;41.18
31082;BME280;17737;52.586;13.284;2023-04-27T11:56:18;101570.06;;;11.27;40.94
31082;BME280;17737;52.586;13.284;2023-04-27T11:58:45;101570.69;;;10.40;42.79
31082;BME280;17737;52.586;13.284;2023-04-27T12:01:13;101579.69;;;10.12;43.53
31082;BME280;17737;52.586;13.284;2023-04-27T12:03:56;101578.53;;;10.33;43.19
31082;BME280;17737;52.586;13.284;2023-04-27T12:06:28;101583.13;;;10.50;43.09
31082;BME280;17737;52.586;13.284;2023-04-27T12:08:59;101584.69;;;10.80;43.37
31082;BME280;17737;52.586;13.284;2023-04-27T12:11:28;101578.19;;;10.73;42.98
31082;BME280;17737;52.586;13.284;2023-04-27T12:13:56;101575.53;;;11.18;42.07
31082;BME280;17737;52.586;13.284;2023-04-27T12:16:25;101569.84;;;11.38;41.22
31082;BME280;17737;52.586;13.284;2023-04-27T12:18:53;101572.78;;;11.45;41.76
31082;BME280;17737;52.586;13.284;2023-04-27T12:21:24;101568.84;;;11.57;40.74
31082;BME280;17737;52.586;13.284;2023-04-27T12:23:52;101574.34;;;11.65;41.75
31082;BME280;17737;52.586;13.284;2023-04-27T12:26:20;101566.78;;;11.33;41.04
31082;BME280;17737;52.586;13.284;2023-04-27T12:28:49;101583.16;;;11.05;38.43
31082;BME280;17737;52.586;13.284;2023-04-27T12:31:17;101581.44;;;11.04;38.31
31082;BME280;17737;52.586;13.284;2023-04-27T12:33:52;101572.78;;;10.82;38.28
31082;BME280;17737;52.586;13.284;2023-04-27T12:36:20;101575.06;;;10.77;39.13
31082;BME280;17737;52.586;13.284;2023-04-27T12:38:48;101575.50;;;11.00;39.07
31082;BME280;17737;52.586;13.284;2023-04-27T12:41:17;101568.84;;;11.57;38.71
31082;BME280;17737;52.586;13.284;2023-04-27T12:43:45;101565.47;;;11.90;37.94
31082;BME280;17737;52.586;13.284;2023-04-27T12:46:15;101569.38;;;12.47;37.82
31082;BME280;17737;52.586;13.284;2023-04-27T12:48:44;101565.34;;;12.84;36.22
31082;BME280;17737;52.586;13.284;2023-04-27T12:51:12;101563.25;;;12.11;38.25
31082;BME280;17737;52.586;13.284;2023-04-27T12:53:40;101566.16;;;12.18;36.50
31082;BME280;17737;52.586;13.284;2023-04-27T12:56:08;101560.13;;;11.63;37.51
31082;BME280;17737;52.586;13.284;2023-04-27T12:58:36;101567.38;;;11.45;38.90
31082;BME280;17737;52.586;13.284;2023-04-27T13:01:05;101564.56;;;11.81;36.87